Flight Track Log - Related Links

Times and Time Zones

All times are in EST time to prevent confusion due to time zone crossing. See the CPT7773 flight status page for this flight to view local times or setup timezone preferences in your user account.

Time Position Orientation Groundspeed Altitude Reporting Facility
EST Latitude Longitude Course Direction KTS MPH feet Rate Location/Type
Wed 08:17:14 PM 44.5411 -109.0069 125° Southeast 101 116 6,100  Level Salt Lake Center
Wed 08:18:16 PM 44.5683 -108.9886 26° Northeast 93 107 7,100 878 Climbing Salt Lake Center
Wed 08:19:00 PM 44.3999 -108.7443 121° Southeast  Level FlightAware Approximate
Wed 08:19:17 PM 44.5583 -108.9350 105° East 123 142 7,900  Level Salt Lake Center
Wed 08:20:00 PM 44.3691 -108.6954 133° Southeast  Level Estimated
Wed 08:20:19 PM 44.5464 -108.8861 109° East 130 150 8,700  Level Salt Lake Center
Wed 08:21:00 PM 44.3422 -108.6422 125° Southeast  Level FlightAware Approximate
Wed 08:21:20 PM 44.5353 -108.8344 107° East 135 155 9,500  Level Salt Lake Center
Wed 08:22:00 PM 44.3153 -108.5890 125° Southeast  Level FlightAware Approximate
Wed 08:22:22 PM 44.5106 -108.7925 130° Southeast 138 159 10,400  Level Salt Lake Center
Wed 08:23:23 PM 44.4836 -108.7539 134° Southeast 139 160 11,100 341 Climbing Salt Lake Center
Wed 08:24:25 PM 44.4542 -108.7103 133° Southeast 144 166 11,100 -49 Level Salt Lake Center
Wed 08:25:26 PM 44.4228 -108.6583 130° Southeast 157 181 11,000 -49 Descending Salt Lake Center
Wed 08:26:28 PM 44.3858 -108.6003 132° Southeast 164 189 11,000  Level Salt Lake Center
Wed 08:27:29 PM 44.3533 -108.5511 133° Southeast 169 194 11,000  Level Salt Lake Center
Wed 08:28:30 PM 44.3228 -108.5017 131° Southeast 170 196 11,000 49 Level Salt Lake Center
Wed 08:29:32 PM 44.2908 -108.4539 133° Southeast 169 194 11,100  Climbing Salt Lake Center
Wed 08:30:33 PM 44.2592 -108.4061 133° Southeast 169 194 11,000  Descending Salt Lake Center
Wed 08:31:35 PM 44.2272 -108.3550 131° Southeast 171 197 11,100 49 Climbing Salt Lake Center
Wed 08:32:36 PM 44.1950 -108.3050 132° Southeast 173 199 11,100 -49 Level Salt Lake Center
Wed 08:33:38 PM 44.1567 -108.2461 132° Southeast 173 199 11,000  Descending Salt Lake Center
Wed 08:34:39 PM 44.1239 -108.1969 133° Southeast 173 199 11,100 49 Climbing Salt Lake Center
Wed 08:35:41 PM 44.0919 -108.1481 132° Southeast 173 199 11,100  Level Salt Lake Center
Wed 08:36:42 PM 44.0597 -108.0997 133° Southeast 172 198 11,100  Level Salt Lake Center
Wed 08:37:44 PM 44.0278 -108.0494 131° Southeast 172 198 11,100  Level Salt Lake Center
Wed 08:38:45 PM 43.9956 -108.0019 133° Southeast 172 198 11,100  Level Salt Lake Center
Wed 08:39:47 PM 43.9636 -107.9539 133° Southeast 171 197 11,100  Level Salt Lake Center
Wed 08:40:48 PM 43.9336 -107.9006 128° Southeast 172 198 11,100  Level Salt Lake Center
Wed 08:41:50 PM 43.9014 -107.8358 125° Southeast 171 197 11,100  Level Salt Lake Center
Wed 08:42:51 PM 43.8733 -107.7817 126° Southeast 172 198 11,100  Level Salt Lake Center
Wed 08:43:53 PM 43.8458 -107.7275 125° Southeast 172 198 11,100  Level Salt Lake Center
Wed 08:44:55 PM 43.8197 -107.6756 125° Southeast 170 196 11,100  Level Salt Lake Center
Wed 08:45:56 PM 43.7917 -107.6236 127° Southeast 169 194 11,100  Level Salt Lake Center
Wed 08:46:58 PM 43.7642 -107.5706 126° Southeast 169 194 11,100  Level Salt Lake Center
Wed 08:47:59 PM 43.7378 -107.5181 125° Southeast 168 193 11,100  Level Salt Lake Center
Wed 08:49:01 PM 43.7058 -107.4533 124° Southeast 169 194 11,100  Level Salt Lake Center
Wed 08:50:02 PM 43.6781 -107.4003 126° Southeast 170 196 11,100  Level Salt Lake Center
Wed 08:51:04 PM 43.6506 -107.3467 125° Southeast 171 197 11,100  Level Salt Lake Center
Wed 08:52:06 PM 43.6228 -107.2917 125° Southeast 172 198 11,100  Level Salt Lake Center
Wed 08:53:07 PM 43.5939 -107.2381 127° Southeast 174 200 11,100  Level Salt Lake Center
Wed 08:54:09 PM 43.5658 -107.1847 126° Southeast 173 199 11,100  Level Salt Lake Center
Wed 08:55:10 PM 43.5383 -107.1331 126° Southeast 171 197 11,100  Level Salt Lake Center
Wed 08:56:12 PM 43.5114 -107.0819 126° Southeast 169 194 11,100  Level Salt Lake Center
Wed 08:57:14 PM 43.4797 -107.0200 125° Southeast 166 191 11,100  Level Salt Lake Center
Wed 08:58:15 PM 43.4539 -106.9686 125° Southeast 164 189 11,100 -49 Level Salt Lake Center
Wed 08:59:17 PM 43.4261 -106.9178 127° Southeast 167 192 11,000 -49 Descending Salt Lake Center
Wed 09:00:18 PM 43.3997 -106.8683 126° Southeast 167 192 11,000  Level Salt Lake Center
Wed 09:01:20 PM 43.3686 -106.8108 127° Southeast 167 192 11,000 -145 Level Salt Lake Center
Wed 09:02:22 PM 43.3206 -106.8017 172° South 176 203 10,700 -390 Descending Salt Lake Center
Wed 09:03:23 PM 43.2678 -106.7892 170° South 175 201 10,200 -390 Descending Salt Lake Center
Wed 09:04:25 PM 43.2211 -106.7806 172° South 176 203 9,900 -262 Descending Salt Lake Center
Wed 09:06:49 PM 43.1153 -106.7586 171° South 163 188 9,300 -291 Descending Denver Center
Wed 09:07:51 PM 43.0672 -106.7489 172° South 160 184 8,900 -387 Descending Denver Center
Wed 09:08:53 PM 43.0233 -106.7442 176° South 161 185 8,500 -146 Descending Denver Center
Wed 09:09:54 PM 42.9733 -106.7378 175° South 162 186 8,600 49 Climbing Denver Center
Wed 09:10:56 PM 42.9292 -106.7331 176° South 163 188 8,600  Level Denver Center
Wed 09:11:58 PM 42.8842 -106.7275 175° South 163 188 8,600  Level Denver Center

Login

Don't have an account? Register now (free) for customized features, flight alerts, and more!